Forester — DIUT — position and weather

sailwx.info

Track history (hours):
 
Tides and Currents Weather Stations Pressure Air Temp Water Temp Dewpoint Dewpoint Depression Visibility Wind Speed Wind Dir Waves Ship Positions

Forester

Last reported at 2016-Aug-25 20:32 UTC. Time now 2016-Aug-26 04:58 UTC.
Position N 39°26' W 000°04'.

Length 100 m; draft 4.6 m.

Type: Ship. MMSI: 211233870.

Date/timePositionNaut miles runAvg speedWind from/ knotsBaromVisibWave heightAir tempDewpointWater temp
2016-Aug-25 20:32N 39°26' W 000°04'4 4.0
2016-Aug-25 19:31N 39°29' W 000°07'7 7.0
2016-Aug-25 18:33N 39°35' W 000°11'66 2.2
2016-Aug-24 12:23N 38°34' E 000°20'911.0
2016-Aug-24 11:33N 38°27' E 000°14'2511.4
2016-Aug-24 09:21N 38°06' W 000°03'2511.2
2016-Aug-24 07:07N 37°45' W 000°21'611.1
2016-Aug-24 06:32N 37°40' W 000°26'2211.2
2016-Aug-24 04:33N 37°24' W 000°45'22510.7
2016-Aug-23 07:33N 35°59' W 005°05'1212.1
2016-Aug-23 06:33N 35°58' W 005°20'1311.8
2016-Aug-23 05:28N 35°56' W 005°36'8 8.9
2016-Aug-23 04:33N 35°56' W 005°46'184 9.0
2016-Aug-22 08:07N 36°43' W 009°27'611.1
2016-Aug-22 07:33N 36°48' W 009°32'1111.1
2016-Aug-22 06:33N 36°59' W 009°35'1111.0
2016-Aug-22 05:33N 37°10' W 009°37'1110.8
2016-Aug-22 04:33N 37°20' W 009°40'1110.9
2016-Aug-22 03:33N 37°31' W 009°43'1110.8
2016-Aug-22 02:33N 37°41' W 009°47'1110.8
2016-Aug-22 01:33N 37°52' W 009°50'1111.0
2016-Aug-22 00:33N 38°03' W 009°53'1111.3
2016-Aug-21 23:33N 38°14' W 009°56'1211.9
2016-Aug-21 22:33N 38°25' W 010°00'1111.5
2016-Aug-21 21:33N 38°37' W 010°03'1111.1
2016-Aug-21 20:33N 38°47' W 010°05'1211.7
2016-Aug-21 19:33N 38°59' W 010°05'1211.6
2016-Aug-21 18:33N 39°11' W 010°04'1411.2
2016-Aug-21 17:20N 39°24' W 010°04'  
2016-Aug-18 20:33N 48°52' W 005°44'7710.7
2016-Aug-18 13:20N 49°33' W 004°04'1211.5
2016-Aug-18 12:16N 49°40' W 003°48'912.6
2016-Aug-18 11:33N 49°44' W 003°36'1212.5
2016-Aug-18 10:33N 49°51' W 003°19'1111.1
2016-Aug-18 09:33N 49°56' W 003°05'1010.1
2016-Aug-18 08:33N 50°01' W 002°51'11 9.2
2016-Aug-18 07:23N 50°04' W 002°35'5511.4
2016-Aug-18 02:34N 50°20' W 001°12'1515.0
2016-Aug-18 01:34N 50°24' W 000°50'1413.7
2016-Aug-18 00:33N 50°28' W 000°29'1312.8
2016-Aug-17 23:34N 50°31' W 000°10'1211.7
2016-Aug-17 22:33N 50°34' E 000°08'1110.6
2016-Aug-17 21:32N 50°37' E 000°25'9 9.8
2016-Aug-17 20:34N 50°41' E 000°38'1110.6
2016-Aug-17 19:33N 50°47' E 000°53'1212.3
2016-Aug-17 18:33N 50°54' E 001°08'1413.8
2016-Aug-17 17:33N 51°03' E 001°25'1313.3
2016-Aug-17 16:33N 51°12' E 001°42'1211.9
2016-Aug-17 15:33N 51°22' E 001°50'1110.7
2016-Aug-17 14:33N 51°31' E 001°59'5 4.5
2016-Aug-17 13:33N 51°35' E 002°04'2 1.6
2016-Aug-17 12:33N 51°36' E 002°05'2 2.4
2016-Aug-17 11:33N 51°37' E 002°08'6 6.2
2016-Aug-17 10:33N 51°41' E 002°17'9 8.9
2016-Aug-17 09:33N 51°47' E 002°26'1010.1
2016-Aug-17 08:33N 51°54' E 002°39'38 9.4
2016-Aug-17 04:33N 52°03' E 003°38'7 7.2
2016-Aug-17 03:33N 52°03' E 003°50'9 8.9
2016-Aug-17 02:33N 51°59' E 004°03'8 8.0
2016-Aug-17 01:33N 51°55' E 004°13'1 1.0
2016-Aug-17 00:31N 51°54' E 004°14'0 0.0
2016-Aug-16 23:31N 51°54' E 004°14'0 0.0
2016-Aug-16 22:31N 51°54' E 004°14'0 0.0
2016-Aug-16 21:31N 51°54' E 004°14'0 0.0
2016-Aug-16 20:31N 51°54' E 004°14'0 0.0
2016-Aug-16 19:31N 51°54' E 004°14'0 0.0
2016-Aug-16 18:34N 51°54' E 004°14'0 0.0
2016-Aug-16 17:33N 51°54' E 004°14'0 0.0
2016-Aug-16 16:33N 51°54' E 004°14'0 0.0
2016-Aug-16 15:33N 51°54' E 004°14'0 0.0
2016-Aug-16 14:33N 51°54' E 004°14'0 0.0
2016-Aug-16 13:33N 51°54' E 004°14'0 0.0
2016-Aug-16 12:33N 51°54' E 004°14'0 0.0
2016-Aug-16 11:33N 51°54' E 004°14'0 0.0
2016-Aug-16 10:33N 51°54' E 004°14'0 0.0
2016-Aug-16 09:33N 51°54' E 004°14'0 0.0
2016-Aug-16 08:33N 51°54' E 004°14'0 0.0
2016-Aug-16 07:33N 51°54' E 004°14'0 0.0
2016-Aug-16 04:33N 51°54' E 004°14'0 0.0
2016-Aug-16 03:30N 51°54' E 004°14'0 0.0
2016-Aug-16 02:30N 51°54' E 004°14'0 0.0
2016-Aug-16 01:24N 51°54' E 004°14'0 0.0
2016-Aug-16 00:33N 51°54' E 004°14'0 0.0
2016-Aug-15 23:33N 51°54' E 004°14'0 0.0
2016-Aug-15 22:33N 51°54' E 004°14'0 0.0
2016-Aug-15 21:33N 51°54' E 004°14'0 0.0
2016-Aug-15 20:33N 51°54' E 004°14'  
Track history (hours):
 
Tides and Currents Weather Stations Pressure Air Temp Water Temp Dewpoint Dewpoint Depression Visibility Wind Speed Wind Dir Waves Ship Positions

Forester

Last reported at 2016-Aug-25 20:32 UTC. Time now 2016-Aug-26 04:58 UTC.
Position N 39°26' W 000°04'.

Length 100 m; draft 4.6 m.

Type: Ship. MMSI: 211233870.

Date/timePositionNaut miles runAvg speedWind from/ knotsBaromVisibWave heightAir tempDewpointWater temp
2016-Aug-25 20:32N 39°26' W 000°04'4 4.0
2016-Aug-25 19:31N 39°29' W 000°07'7 7.0
2016-Aug-25 18:33N 39°35' W 000°11'66 2.2
2016-Aug-24 12:23N 38°34' E 000°20'911.0
2016-Aug-24 11:33N 38°27' E 000°14'2511.4
2016-Aug-24 09:21N 38°06' W 000°03'2511.2
2016-Aug-24 07:07N 37°45' W 000°21'611.1
2016-Aug-24 06:32N 37°40' W 000°26'2211.2
2016-Aug-24 04:33N 37°24' W 000°45'22510.7
2016-Aug-23 07:33N 35°59' W 005°05'1212.1
2016-Aug-23 06:33N 35°58' W 005°20'1311.8
2016-Aug-23 05:28N 35°56' W 005°36'8 8.9
2016-Aug-23 04:33N 35°56' W 005°46'184 9.0
2016-Aug-22 08:07N 36°43' W 009°27'611.1
2016-Aug-22 07:33N 36°48' W 009°32'1111.1
2016-Aug-22 06:33N 36°59' W 009°35'1111.0
2016-Aug-22 05:33N 37°10' W 009°37'1110.8
2016-Aug-22 04:33N 37°20' W 009°40'1110.9
2016-Aug-22 03:33N 37°31' W 009°43'1110.8
2016-Aug-22 02:33N 37°41' W 009°47'1110.8
2016-Aug-22 01:33N 37°52' W 009°50'1111.0
2016-Aug-22 00:33N 38°03' W 009°53'1111.3
2016-Aug-21 23:33N 38°14' W 009°56'1211.9
2016-Aug-21 22:33N 38°25' W 010°00'1111.5
2016-Aug-21 21:33N 38°37' W 010°03'1111.1
2016-Aug-21 20:33N 38°47' W 010°05'1211.7
2016-Aug-21 19:33N 38°59' W 010°05'1211.6
2016-Aug-21 18:33N 39°11' W 010°04'1411.2
2016-Aug-21 17:20N 39°24' W 010°04'  
2016-Aug-18 20:33N 48°52' W 005°44'7710.7
2016-Aug-18 13:20N 49°33' W 004°04'1211.5
2016-Aug-18 12:16N 49°40' W 003°48'912.6
2016-Aug-18 11:33N 49°44' W 003°36'1212.5
2016-Aug-18 10:33N 49°51' W 003°19'1111.1
2016-Aug-18 09:33N 49°56' W 003°05'1010.1
2016-Aug-18 08:33N 50°01' W 002°51'11 9.2
2016-Aug-18 07:23N 50°04' W 002°35'5511.4
2016-Aug-18 02:34N 50°20' W 001°12'1515.0
2016-Aug-18 01:34N 50°24' W 000°50'1413.7
2016-Aug-18 00:33N 50°28' W 000°29'1312.8
2016-Aug-17 23:34N 50°31' W 000°10'1211.7
2016-Aug-17 22:33N 50°34' E 000°08'1110.6
2016-Aug-17 21:32N 50°37' E 000°25'9 9.8
2016-Aug-17 20:34N 50°41' E 000°38'1110.6
2016-Aug-17 19:33N 50°47' E 000°53'1212.3
2016-Aug-17 18:33N 50°54' E 001°08'1413.8
2016-Aug-17 17:33N 51°03' E 001°25'1313.3
2016-Aug-17 16:33N 51°12' E 001°42'1211.9
2016-Aug-17 15:33N 51°22' E 001°50'1110.7
2016-Aug-17 14:33N 51°31' E 001°59'5 4.5
2016-Aug-17 13:33N 51°35' E 002°04'2 1.6
2016-Aug-17 12:33N 51°36' E 002°05'2 2.4
2016-Aug-17 11:33N 51°37' E 002°08'6 6.2
2016-Aug-17 10:33N 51°41' E 002°17'9 8.9
2016-Aug-17 09:33N 51°47' E 002°26'1010.1
2016-Aug-17 08:33N 51°54' E 002°39'38 9.4
2016-Aug-17 04:33N 52°03' E 003°38'7 7.2
2016-Aug-17 03:33N 52°03' E 003°50'9 8.9
2016-Aug-17 02:33N 51°59' E 004°03'8 8.0
2016-Aug-17 01:33N 51°55' E 004°13'1 1.0
2016-Aug-17 00:31N 51°54' E 004°14'0 0.0
2016-Aug-16 23:31N 51°54' E 004°14'0 0.0
2016-Aug-16 22:31N 51°54' E 004°14'0 0.0
2016-Aug-16 21:31N 51°54' E 004°14'0 0.0
2016-Aug-16 20:31N 51°54' E 004°14'0 0.0
2016-Aug-16 19:31N 51°54' E 004°14'0 0.0
2016-Aug-16 18:34N 51°54' E 004°14'0 0.0
2016-Aug-16 17:33N 51°54' E 004°14'0 0.0
2016-Aug-16 16:33N 51°54' E 004°14'0 0.0
2016-Aug-16 15:33N 51°54' E 004°14'0 0.0
2016-Aug-16 14:33N 51°54' E 004°14'0 0.0
2016-Aug-16 13:33N 51°54' E 004°14'0 0.0
2016-Aug-16 12:33N 51°54' E 004°14'0 0.0
2016-Aug-16 11:33N 51°54' E 004°14'0 0.0
2016-Aug-16 10:33N 51°54' E 004°14'0 0.0
2016-Aug-16 09:33N 51°54' E 004°14'0 0.0
2016-Aug-16 08:33N 51°54' E 004°14'0 0.0
2016-Aug-16 07:33N 51°54' E 004°14'0 0.0
2016-Aug-16 04:33N 51°54' E 004°14'0 0.0
2016-Aug-16 03:30N 51°54' E 004°14'0 0.0
2016-Aug-16 02:30N 51°54' E 004°14'0 0.0
2016-Aug-16 01:24N 51°54' E 004°14'0 0.0
2016-Aug-16 00:33N 51°54' E 004°14'0 0.0
2016-Aug-15 23:33N 51°54' E 004°14'0 0.0
2016-Aug-15 22:33N 51°54' E 004°14'0 0.0
2016-Aug-15 21:33N 51°54' E 004°14'0 0.0
2016-Aug-15 20:33N 51°54' E 004°14'  

Dump ship's entire track history